sensor_id;sensor_type;location;lat;lon;timestamp;P1;durP1;ratioP1;P2;durP2;ratioP2
42094;SDS011;27753;55.724;37.612;2024-03-02T00:00:15;62.80;;;38.22;;
42094;SDS011;27753;55.724;37.612;2024-03-02T00:02:44;60.75;;;35.38;;
42094;SDS011;27753;55.724;37.612;2024-03-02T00:05:12;63.05;;;36.72;;
42094;SDS011;27753;55.724;37.612;2024-03-02T00:07:42;65.53;;;40.50;;
42094;SDS011;27753;55.724;37.612;2024-03-02T00:10:11;68.03;;;38.15;;
42094;SDS011;27753;55.724;37.612;2024-03-02T00:12:39;57.30;;;37.00;;
42094;SDS011;27753;55.724;37.612;2024-03-02T00:17:43;65.70;;;39.40;;
42094;SDS011;27753;55.724;37.612;2024-03-02T00:20:10;65.45;;;38.75;;
42094;SDS011;27753;55.724;37.612;2024-03-02T00:22:43;66.60;;;35.90;;
42094;SDS011;27753;55.724;37.612;2024-03-02T00:25:09;65.15;;;39.53;;
42094;SDS011;27753;55.724;37.612;2024-03-02T00:27:35;62.70;;;37.33;;
42094;SDS011;27753;55.724;37.612;2024-03-02T00:30:03;59.95;;;37.38;;
42094;SDS011;27753;55.724;37.612;2024-03-02T00:32:52;65.75;;;39.83;;
42094;SDS011;27753;55.724;37.612;2024-03-02T00:35:18;60.65;;;39.67;;
42094;SDS011;27753;55.724;37.612;2024-03-02T00:37:48;70.45;;;43.42;;
42094;SDS011;27753;55.724;37.612;2024-03-02T00:40:14;62.47;;;35.15;;
42094;SDS011;27753;55.724;37.612;2024-03-02T00:42:41;64.07;;;38.78;;
42094;SDS011;27753;55.724;37.612;2024-03-02T00:45:10;60.13;;;38.88;;
42094;SDS011;27753;55.724;37.612;2024-03-02T00:47:39;61.75;;;38.47;;
42094;SDS011;27753;55.724;37.612;2024-03-02T00:50:05;65.53;;;39.38;;
42094;SDS011;27753;55.724;37.612;2024-03-02T00:52:31;60.67;;;38.10;;
42094;SDS011;27753;55.724;37.612;2024-03-02T00:54:58;61.55;;;36.60;;
42094;SDS011;27753;55.724;37.612;2024-03-02T00:57:24;61.97;;;36.22;;
42094;SDS011;27753;55.724;37.612;2024-03-02T01:02:17;55.72;;;35.40;;
42094;SDS011;27753;55.724;37.612;2024-03-02T01:04:45;57.92;;;36.60;;
42094;SDS011;27753;55.724;37.612;2024-03-02T01:07:11;61.83;;;37.78;;
42094;SDS011;27753;55.724;37.612;2024-03-02T01:09:37;60.22;;;36.75;;
42094;SDS011;27753;55.724;37.612;2024-03-02T01:12:03;58.88;;;39.03;;
42094;SDS011;27753;55.724;37.612;2024-03-02T01:14:29;62.10;;;36.70;;
42094;SDS011;27753;55.724;37.612;2024-03-02T01:16:57;69.47;;;38.08;;
42094;SDS011;27753;55.724;37.612;2024-03-02T01:21:49;60.15;;;36.95;;
42094;SDS011;27753;55.724;37.612;2024-03-02T01:24:17;62.15;;;36.80;;
42094;SDS011;27753;55.724;37.612;2024-03-02T01:26:43;60.72;;;37.53;;
42094;SDS011;27753;55.724;37.612;2024-03-02T01:29:09;60.08;;;37.58;;
42094;SDS011;27753;55.724;37.612;2024-03-02T01:31:35;73.28;;;36.50;;
42094;SDS011;27753;55.724;37.612;2024-03-02T01:34:00;57.72;;;36.60;;
42094;SDS011;27753;55.724;37.612;2024-03-02T01:36:26;62.58;;;39.08;;
42094;SDS011;27753;55.724;37.612;2024-03-02T01:38:52;71.57;;;37.03;;
42094;SDS011;27753;55.724;37.612;2024-03-02T01:41:18;62.78;;;37.10;;
42094;SDS011;27753;55.724;37.612;2024-03-02T01:43:44;65.88;;;37.15;;
42094;SDS011;27753;55.724;37.612;2024-03-02T01:46:10;71.50;;;39.08;;
42094;SDS011;27753;55.724;37.612;2024-03-02T01:48:35;63.78;;;37.03;;
42094;SDS011;27753;55.724;37.612;2024-03-02T01:51:01;65.25;;;39.72;;
42094;SDS011;27753;55.724;37.612;2024-03-02T01:53:28;62.63;;;38.63;;
42094;SDS011;27753;55.724;37.612;2024-03-02T01:55:54;55.78;;;35.80;;
42094;SDS011;27753;55.724;37.612;2024-03-02T01:58:19;59.60;;;38.65;;
42094;SDS011;27753;55.724;37.612;2024-03-02T02:00:45;64.38;;;38.80;;
42094;SDS011;27753;55.724;37.612;2024-03-02T02:05:39;58.28;;;35.47;;
42094;SDS011;27753;55.724;37.612;2024-03-02T02:08:07;65.55;;;36.38;;
42094;SDS011;27753;55.724;37.612;2024-03-02T02:10:33;58.05;;;36.00;;
42094;SDS011;27753;55.724;37.612;2024-03-02T02:12:59;58.05;;;35.58;;
42094;SDS011;27753;55.724;37.612;2024-03-02T02:15:26;69.18;;;38.38;;
42094;SDS011;27753;55.724;37.612;2024-03-02T02:17:56;56.30;;;34.05;;
42094;SDS011;27753;55.724;37.612;2024-03-02T02:20:23;63.53;;;35.35;;
42094;SDS011;27753;55.724;37.612;2024-03-02T02:25:25;53.88;;;34.42;;
42094;SDS011;27753;55.724;37.612;2024-03-02T02:27:51;58.55;;;33.67;;
42094;SDS011;27753;55.724;37.612;2024-03-02T02:30:24;54.60;;;36.38;;
42094;SDS011;27753;55.724;37.612;2024-03-02T02:32:52;62.00;;;35.72;;
42094;SDS011;27753;55.724;37.612;2024-03-02T02:35:18;63.95;;;35.90;;
42094;SDS011;27753;55.724;37.612;2024-03-02T02:37:44;58.38;;;36.33;;
42094;SDS011;27753;55.724;37.612;2024-03-02T02:42:38;62.47;;;35.92;;
42094;SDS011;27753;55.724;37.612;2024-03-02T02:45:04;66.53;;;38.10;;
42094;SDS011;27753;55.724;37.612;2024-03-02T02:47:31;55.33;;;35.83;;
42094;SDS011;27753;55.724;37.612;2024-03-02T02:50:00;54.17;;;35.47;;
42094;SDS011;27753;55.724;37.612;2024-03-02T02:52:35;61.22;;;35.95;;
42094;SDS011;27753;55.724;37.612;2024-03-02T02:55:03;60.25;;;37.38;;
42094;SDS011;27753;55.724;37.612;2024-03-02T02:57:30;65.82;;;39.30;;
42094;SDS011;27753;55.724;37.612;2024-03-02T03:00:00;60.10;;;39.28;;
42094;SDS011;27753;55.724;37.612;2024-03-02T03:02:30;63.08;;;37.20;;
42094;SDS011;27753;55.724;37.612;2024-03-02T03:04:56;68.15;;;38.78;;
42094;SDS011;27753;55.724;37.612;2024-03-02T03:07:22;57.38;;;39.30;;
42094;SDS011;27753;55.724;37.612;2024-03-02T03:09:48;61.72;;;37.88;;
42094;SDS011;27753;55.724;37.612;2024-03-02T03:12:14;65.13;;;38.13;;
42094;SDS011;27753;55.724;37.612;2024-03-02T03:14:40;60.47;;;37.30;;
42094;SDS011;27753;55.724;37.612;2024-03-02T03:17:06;64.25;;;39.28;;
42094;SDS011;27753;55.724;37.612;2024-03-02T03:19:33;67.30;;;41.00;;
42094;SDS011;27753;55.724;37.612;2024-03-02T03:21:59;65.53;;;38.72;;
42094;SDS011;27753;55.724;37.612;2024-03-02T03:24:24;69.68;;;42.55;;
42094;SDS011;27753;55.724;37.612;2024-03-02T03:26:50;59.00;;;39.95;;
42094;SDS011;27753;55.724;37.612;2024-03-02T03:29:16;63.42;;;41.10;;
42094;SDS011;27753;55.724;37.612;2024-03-02T03:31:42;61.97;;;40.05;;
42094;SDS011;27753;55.724;37.612;2024-03-02T03:34:08;75.25;;;42.92;;
42094;SDS011;27753;55.724;37.612;2024-03-02T03:36:33;75.43;;;43.53;;
42094;SDS011;27753;55.724;37.612;2024-03-02T03:38:59;74.82;;;43.92;;
42094;SDS011;27753;55.724;37.612;2024-03-02T03:43:52;66.28;;;42.20;;
42094;SDS011;27753;55.724;37.612;2024-03-02T03:46:18;73.90;;;45.60;;
42094;SDS011;27753;55.724;37.612;2024-03-02T03:48:44;80.63;;;45.05;;
42094;SDS011;27753;55.724;37.612;2024-03-02T03:51:10;70.13;;;44.13;;
42094;SDS011;27753;55.724;37.612;2024-03-02T03:53:35;72.60;;;45.60;;
42094;SDS011;27753;55.724;37.612;2024-03-02T03:56:01;74.68;;;45.50;;
42094;SDS011;27753;55.724;37.612;2024-03-02T03:58:27;76.50;;;45.53;;
42094;SDS011;27753;55.724;37.612;2024-03-02T04:00:53;71.03;;;43.13;;
42094;SDS011;27753;55.724;37.612;2024-03-02T04:03:19;71.85;;;44.08;;
42094;SDS011;27753;55.724;37.612;2024-03-02T04:05:45;71.95;;;43.63;;
42094;SDS011;27753;55.724;37.612;2024-03-02T04:08:10;79.20;;;47.75;;
42094;SDS011;27753;55.724;37.612;2024-03-02T04:10:36;73.07;;;45.15;;
42094;SDS011;27753;55.724;37.612;2024-03-02T04:13:02;75.05;;;45.35;;
42094;SDS011;27753;55.724;37.612;2024-03-02T04:15:28;69.85;;;43.55;;
42094;SDS011;27753;55.724;37.612;2024-03-02T04:17:54;79.93;;;48.00;;
42094;SDS011;27753;55.724;37.612;2024-03-02T04:20:20;74.00;;;45.80;;
42094;SDS011;27753;55.724;37.612;2024-03-02T04:22:46;67.75;;;44.97;;
42094;SDS011;27753;55.724;37.612;2024-03-02T04:25:12;75.43;;;46.00;;
42094;SDS011;27753;55.724;37.612;2024-03-02T04:27:38;75.72;;;46.60;;
42094;SDS011;27753;55.724;37.612;2024-03-02T04:30:04;74.63;;;46.67;;
42094;SDS011;27753;55.724;37.612;2024-03-02T04:32:30;73.18;;;47.83;;
42094;SDS011;27753;55.724;37.612;2024-03-02T04:34:56;76.18;;;50.67;;
42094;SDS011;27753;55.724;37.612;2024-03-02T04:37:22;76.35;;;48.42;;
42094;SDS011;27753;55.724;37.612;2024-03-02T04:39:48;81.93;;;50.78;;
42094;SDS011;27753;55.724;37.612;2024-03-02T04:42:14;84.15;;;51.88;;
42094;SDS011;27753;55.724;37.612;2024-03-02T04:44:40;74.10;;;51.05;;
42094;SDS011;27753;55.724;37.612;2024-03-02T04:47:05;92.50;;;52.95;;
42094;SDS011;27753;55.724;37.612;2024-03-02T04:49:31;91.93;;;54.13;;
42094;SDS011;27753;55.724;37.612;2024-03-02T04:51:57;91.82;;;56.50;;
42094;SDS011;27753;55.724;37.612;2024-03-02T04:54:23;79.10;;;49.10;;
42094;SDS011;27753;55.724;37.612;2024-03-02T04:56:49;74.80;;;49.38;;
42094;SDS011;27753;55.724;37.612;2024-03-02T04:59:18;80.78;;;46.78;;
42094;SDS011;27753;55.724;37.612;2024-03-02T05:01:44;78.78;;;46.28;;
42094;SDS011;27753;55.724;37.612;2024-03-02T05:04:10;80.03;;;46.53;;
42094;SDS011;27753;55.724;37.612;2024-03-02T05:06:39;69.90;;;44.78;;
42094;SDS011;27753;55.724;37.612;2024-03-02T05:09:09;79.15;;;50.33;;
42094;SDS011;27753;55.724;37.612;2024-03-02T05:11:35;78.13;;;48.80;;
42094;SDS011;27753;55.724;37.612;2024-03-02T05:14:06;79.28;;;45.92;;
42094;SDS011;27753;55.724;37.612;2024-03-02T05:16:33;73.13;;;46.63;;
42094;SDS011;27753;55.724;37.612;2024-03-02T05:19:03;76.90;;;46.28;;
42094;SDS011;27753;55.724;37.612;2024-03-02T05:21:32;80.95;;;48.00;;
42094;SDS011;27753;55.724;37.612;2024-03-02T05:23:58;69.75;;;44.17;;
42094;SDS011;27753;55.724;37.612;2024-03-02T05:26:24;75.85;;;45.70;;
42094;SDS011;27753;55.724;37.612;2024-03-02T05:28:50;80.22;;;50.35;;
42094;SDS011;27753;55.724;37.612;2024-03-02T05:31:16;72.00;;;44.63;;
42094;SDS011;27753;55.724;37.612;2024-03-02T05:33:42;74.80;;;46.13;;
42094;SDS011;27753;55.724;37.612;2024-03-02T05:36:08;79.60;;;45.92;;
42094;SDS011;27753;55.724;37.612;2024-03-02T05:38:34;80.93;;;48.28;;
42094;SDS011;27753;55.724;37.612;2024-03-02T05:41:01;68.85;;;45.25;;
42094;SDS011;27753;55.724;37.612;2024-03-02T05:43:26;74.70;;;45.90;;
42094;SDS011;27753;55.724;37.612;2024-03-02T05:45:52;76.47;;;46.85;;
42094;SDS011;27753;55.724;37.612;2024-03-02T05:48:18;77.97;;;47.10;;
42094;SDS011;27753;55.724;37.612;2024-03-02T05:50:44;76.60;;;48.47;;
42094;SDS011;27753;55.724;37.612;2024-03-02T05:53:10;87.95;;;48.75;;
42094;SDS011;27753;55.724;37.612;2024-03-02T05:55:35;77.25;;;48.80;;
42094;SDS011;27753;55.724;37.612;2024-03-02T05:58:01;84.57;;;50.47;;
42094;SDS011;27753;55.724;37.612;2024-03-02T06:00:57;93.32;;;55.45;;
42094;SDS011;27753;55.724;37.612;2024-03-02T06:03:23;92.18;;;59.72;;
42094;SDS011;27753;55.724;37.612;2024-03-02T06:05:49;101.07;;;62.45;;
42094;SDS011;27753;55.724;37.612;2024-03-02T06:08:16;100.03;;;67.67;;
42094;SDS011;27753;55.724;37.612;2024-03-02T06:10:42;119.32;;;73.65;;
42094;SDS011;27753;55.724;37.612;2024-03-02T06:13:08;112.10;;;73.53;;
42094;SDS011;27753;55.724;37.612;2024-03-02T06:15:34;125.03;;;77.38;;
42094;SDS011;27753;55.724;37.612;2024-03-02T06:18:01;126.03;;;80.60;;
42094;SDS011;27753;55.724;37.612;2024-03-02T06:20:27;115.13;;;77.90;;
42094;SDS011;27753;55.724;37.612;2024-03-02T06:22:55;129.18;;;83.22;;
42094;SDS011;27753;55.724;37.612;2024-03-02T06:25:22;123.53;;;81.13;;
42094;SDS011;27753;55.724;37.612;2024-03-02T06:27:47;123.97;;;79.75;;
42094;SDS011;27753;55.724;37.612;2024-03-02T06:30:13;138.25;;;84.15;;
42094;SDS011;27753;55.724;37.612;2024-03-02T06:32:39;127.25;;;81.07;;
42094;SDS011;27753;55.724;37.612;2024-03-02T06:35:05;113.70;;;74.78;;
42094;SDS011;27753;55.724;37.612;2024-03-02T06:37:35;114.35;;;69.40;;
42094;SDS011;27753;55.724;37.612;2024-03-02T06:40:01;118.97;;;72.00;;
42094;SDS011;27753;55.724;37.612;2024-03-02T06:42:27;118.03;;;74.65;;
42094;SDS011;27753;55.724;37.612;2024-03-02T06:44:58;115.53;;;69.70;;
42094;SDS011;27753;55.724;37.612;2024-03-02T06:47:24;115.00;;;70.18;;
42094;SDS011;27753;55.724;37.612;2024-03-02T06:49:50;105.32;;;69.80;;
42094;SDS011;27753;55.724;37.612;2024-03-02T06:52:16;121.05;;;73.30;;
42094;SDS011;27753;55.724;37.612;2024-03-02T06:54:42;118.85;;;74.05;;
42094;SDS011;27753;55.724;37.612;2024-03-02T06:57:08;115.97;;;70.50;;
42094;SDS011;27753;55.724;37.612;2024-03-02T06:59:34;114.15;;;69.20;;
42094;SDS011;27753;55.724;37.612;2024-03-02T07:01:59;118.18;;;74.30;;
42094;SDS011;27753;55.724;37.612;2024-03-02T07:04:26;106.15;;;69.57;;
42094;SDS011;27753;55.724;37.612;2024-03-02T07:06:52;120.03;;;73.60;;
42094;SDS011;27753;55.724;37.612;2024-03-02T07:09:18;109.90;;;72.97;;
42094;SDS011;27753;55.724;37.612;2024-03-02T07:11:47;90.53;;;59.72;;
42094;SDS011;27753;55.724;37.612;2024-03-02T07:14:13;113.57;;;76.15;;
42094;SDS011;27753;55.724;37.612;2024-03-02T07:16:40;108.15;;;74.15;;
42094;SDS011;27753;55.724;37.612;2024-03-02T07:19:08;113.28;;;72.68;;
42094;SDS011;27753;55.724;37.612;2024-03-02T07:21:34;111.10;;;74.68;;
42094;SDS011;27753;55.724;37.612;2024-03-02T07:24:00;105.88;;;70.68;;
42094;SDS011;27753;55.724;37.612;2024-03-02T07:26:28;111.20;;;70.28;;
42094;SDS011;27753;55.724;37.612;2024-03-02T07:28:56;115.60;;;76.63;;
42094;SDS011;27753;55.724;37.612;2024-03-02T07:31:22;107.80;;;73.93;;
42094;SDS011;27753;55.724;37.612;2024-03-02T07:33:48;113.22;;;73.70;;
42094;SDS011;27753;55.724;37.612;2024-03-02T07:36:14;109.63;;;70.93;;
42094;SDS011;27753;55.724;37.612;2024-03-02T07:38:40;102.30;;;58.40;;
42094;SDS011;27753;55.724;37.612;2024-03-02T07:41:07;109.93;;;69.18;;
42094;SDS011;27753;55.724;37.612;2024-03-02T07:43:33;123.35;;;70.63;;
42094;SDS011;27753;55.724;37.612;2024-03-02T07:45:59;101.55;;;66.05;;
42094;SDS011;27753;55.724;37.612;2024-03-02T07:48:25;89.32;;;61.05;;
42094;SDS011;27753;55.724;37.612;2024-03-02T07:50:52;94.77;;;61.43;;
42094;SDS011;27753;55.724;37.612;2024-03-02T07:53:17;93.45;;;61.17;;
42094;SDS011;27753;55.724;37.612;2024-03-02T07:55:43;103.80;;;65.20;;
42094;SDS011;27753;55.724;37.612;2024-03-02T07:58:09;97.32;;;59.70;;
42094;SDS011;27753;55.724;37.612;2024-03-02T08:00:38;92.90;;;63.00;;
42094;SDS011;27753;55.724;37.612;2024-03-02T08:03:05;93.28;;;62.22;;
42094;SDS011;27753;55.724;37.612;2024-03-02T08:05:31;103.18;;;67.30;;
42094;SDS011;27753;55.724;37.612;2024-03-02T08:07:57;103.10;;;63.67;;
42094;SDS011;27753;55.724;37.612;2024-03-02T08:10:23;99.57;;;64.30;;
42094;SDS011;27753;55.724;37.612;2024-03-02T08:12:52;102.32;;;60.92;;
42094;SDS011;27753;55.724;37.612;2024-03-02T08:15:18;103.05;;;59.67;;
42094;SDS011;27753;55.724;37.612;2024-03-02T08:17:44;99.15;;;63.92;;
42094;SDS011;27753;55.724;37.612;2024-03-02T08:20:13;96.78;;;61.83;;
42094;SDS011;27753;55.724;37.612;2024-03-02T08:22:39;94.25;;;58.78;;
42094;SDS011;27753;55.724;37.612;2024-03-02T08:25:05;95.03;;;59.10;;
42094;SDS011;27753;55.724;37.612;2024-03-02T08:27:33;86.10;;;56.90;;
42094;SDS011;27753;55.724;37.612;2024-03-02T08:29:59;85.13;;;53.30;;
42094;SDS011;27753;55.724;37.612;2024-03-02T08:32:24;80.03;;;52.38;;
42094;SDS011;27753;55.724;37.612;2024-03-02T08:34:50;92.30;;;56.42;;
42094;SDS011;27753;55.724;37.612;2024-03-02T08:37:16;78.22;;;57.88;;
42094;SDS011;27753;55.724;37.612;2024-03-02T08:39:47;80.82;;;56.67;;
42094;SDS011;27753;55.724;37.612;2024-03-02T08:46:54;87.57;;;58.70;;
42094;SDS011;27753;55.724;37.612;2024-03-02T08:50:03;80.13;;;53.97;;
42094;SDS011;27753;55.724;37.612;2024-03-02T08:53:24;83.70;;;55.88;;
42094;SDS011;27753;55.724;37.612;2024-03-02T08:55:49;89.15;;;61.45;;
42094;SDS011;27753;55.724;37.612;2024-03-02T08:58:16;79.03;;;55.25;;
42094;SDS011;27753;55.724;37.612;2024-03-02T09:00:42;83.53;;;54.05;;
42094;SDS011;27753;55.724;37.612;2024-03-02T09:03:09;87.53;;;55.08;;
42094;SDS011;27753;55.724;37.612;2024-03-02T09:05:37;74.78;;;53.75;;
42094;SDS011;27753;55.724;37.612;2024-03-02T09:08:04;93.88;;;62.22;;
42094;SDS011;27753;55.724;37.612;2024-03-02T09:10:30;88.53;;;59.13;;
42094;SDS011;27753;55.724;37.612;2024-03-02T09:12:56;89.03;;;58.88;;
42094;SDS011;27753;55.724;37.612;2024-03-02T09:15:23;92.38;;;56.10;;
42094;SDS011;27753;55.724;37.612;2024-03-02T09:17:49;87.00;;;57.22;;
42094;SDS011;27753;55.724;37.612;2024-03-02T09:20:16;94.70;;;58.10;;
42094;SDS011;27753;55.724;37.612;2024-03-02T09:22:42;84.85;;;56.10;;
42094;SDS011;27753;55.724;37.612;2024-03-02T09:25:08;90.07;;;58.08;;
42094;SDS011;27753;55.724;37.612;2024-03-02T09:27:36;93.35;;;55.03;;
42094;SDS011;27753;55.724;37.612;2024-03-02T09:30:03;91.13;;;56.95;;
42094;SDS011;27753;55.724;37.612;2024-03-02T09:32:30;81.45;;;52.88;;
42094;SDS011;27753;55.724;37.612;2024-03-02T09:34:56;84.63;;;55.67;;
42094;SDS011;27753;55.724;37.612;2024-03-02T09:37:23;79.78;;;50.67;;
42094;SDS011;27753;55.724;37.612;2024-03-02T09:39:49;79.07;;;53.65;;
42094;SDS011;27753;55.724;37.612;2024-03-02T09:42:15;77.80;;;51.60;;
42094;SDS011;27753;55.724;37.612;2024-03-02T09:44:41;71.15;;;47.97;;
42094;SDS011;27753;55.724;37.612;2024-03-02T09:47:08;72.57;;;47.50;;
42094;SDS011;27753;55.724;37.612;2024-03-02T09:49:34;81.78;;;53.88;;
42094;SDS011;27753;55.724;37.612;2024-03-02T09:52:01;87.30;;;49.78;;
42094;SDS011;27753;55.724;37.612;2024-03-02T09:54:30;76.10;;;48.50;;
42094;SDS011;27753;55.724;37.612;2024-03-02T09:56:56;75.97;;;49.63;;
42094;SDS011;27753;55.724;37.612;2024-03-02T09:59:28;80.63;;;49.78;;
42094;SDS011;27753;55.724;37.612;2024-03-02T10:02:03;75.43;;;45.22;;
42094;SDS011;27753;55.724;37.612;2024-03-02T10:04:32;69.32;;;46.30;;
42094;SDS011;27753;55.724;37.612;2024-03-02T10:07:11;67.93;;;46.57;;
42094;SDS011;27753;55.724;37.612;2024-03-02T10:09:42;71.32;;;46.33;;
42094;SDS011;27753;55.724;37.612;2024-03-02T10:12:17;72.32;;;47.42;;
42094;SDS011;27753;55.724;37.612;2024-03-02T10:14:43;67.90;;;44.33;;
42094;SDS011;27753;55.724;37.612;2024-03-02T10:17:10;69.90;;;47.58;;
42094;SDS011;27753;55.724;37.612;2024-03-02T10:19:38;74.38;;;48.30;;
42094;SDS011;27753;55.724;37.612;2024-03-02T10:22:05;79.70;;;50.92;;
42094;SDS011;27753;55.724;37.612;2024-03-02T10:24:38;73.93;;;49.30;;
42094;SDS011;27753;55.724;37.612;2024-03-02T10:27:19;66.22;;;46.30;;
42094;SDS011;27753;55.724;37.612;2024-03-02T10:29:49;72.13;;;45.80;;
42094;SDS011;27753;55.724;37.612;2024-03-02T10:32:15;72.97;;;47.35;;
42094;SDS011;27753;55.724;37.612;2024-03-02T10:34:42;75.47;;;47.95;;
42094;SDS011;27753;55.724;37.612;2024-03-02T10:37:11;71.65;;;47.60;;
42094;SDS011;27753;55.724;37.612;2024-03-02T10:39:38;76.05;;;47.83;;
42094;SDS011;27753;55.724;37.612;2024-03-02T10:42:05;66.75;;;45.25;;
42094;SDS011;27753;55.724;37.612;2024-03-02T10:44:32;77.60;;;47.72;;
42094;SDS011;27753;55.724;37.612;2024-03-02T10:47:01;72.82;;;48.33;;
42094;SDS011;27753;55.724;37.612;2024-03-02T10:49:29;68.93;;;46.22;;
42094;SDS011;27753;55.724;37.612;2024-03-02T10:51:57;76.65;;;45.88;;
42094;SDS011;27753;55.724;37.612;2024-03-02T10:54:26;70.38;;;45.05;;
42094;SDS011;27753;55.724;37.612;2024-03-02T10:57:00;75.05;;;47.00;;
42094;SDS011;27753;55.724;37.612;2024-03-02T10:59:30;77.45;;;48.60;;
42094;SDS011;27753;55.724;37.612;2024-03-02T11:01:59;68.43;;;46.38;;
42094;SDS011;27753;55.724;37.612;2024-03-02T11:04:27;70.78;;;43.92;;
42094;SDS011;27753;55.724;37.612;2024-03-02T11:07:07;81.47;;;52.10;;
42094;SDS011;27753;55.724;37.612;2024-03-02T11:13:31;66.55;;;37.15;;
42094;SDS011;27753;55.724;37.612;2024-03-02T11:16:35;65.97;;;39.95;;
42094;SDS011;27753;55.724;37.612;2024-03-02T11:19:05;56.00;;;37.55;;
42094;SDS011;27753;55.724;37.612;2024-03-02T11:21:34;59.45;;;36.95;;
42094;SDS011;27753;55.724;37.612;2024-03-02T11:24:03;61.95;;;37.85;;
42094;SDS011;27753;55.724;37.612;2024-03-02T11:26:48;52.35;;;34.78;;
42094;SDS011;27753;55.724;37.612;2024-03-02T11:32:14;51.72;;;32.88;;
42094;SDS011;27753;55.724;37.612;2024-03-02T11:34:50;52.42;;;34.58;;
42094;SDS011;27753;55.724;37.612;2024-03-02T11:37:16;52.10;;;32.78;;
42094;SDS011;27753;55.724;37.612;2024-03-02T11:39:47;47.95;;;33.22;;
42094;SDS011;27753;55.724;37.612;2024-03-02T11:42:15;63.75;;;37.10;;
42094;SDS011;27753;55.724;37.612;2024-03-02T11:44:45;54.40;;;36.17;;
42094;SDS011;27753;55.724;37.612;2024-03-02T11:47:12;58.67;;;34.60;;
42094;SDS011;27753;55.724;37.612;2024-03-02T11:49:48;46.55;;;33.47;;
42094;SDS011;27753;55.724;37.612;2024-03-02T11:52:16;52.25;;;33.20;;
42094;SDS011;27753;55.724;37.612;2024-03-02T11:54:46;51.10;;;34.97;;
42094;SDS011;27753;55.724;37.612;2024-03-02T11:57:23;62.45;;;40.25;;
42094;SDS011;27753;55.724;37.612;2024-03-02T11:59:49;56.55;;;38.97;;
42094;SDS011;27753;55.724;37.612;2024-03-02T12:02:15;61.75;;;41.20;;
42094;SDS011;27753;55.724;37.612;2024-03-02T12:04:43;70.22;;;40.65;;
42094;SDS011;27753;55.724;37.612;2024-03-02T12:07:10;57.83;;;39.58;;
42094;SDS011;27753;55.724;37.612;2024-03-02T12:09:37;52.75;;;41.03;;
42094;SDS011;27753;55.724;37.612;2024-03-02T12:12:04;70.07;;;40.80;;
42094;SDS011;27753;55.724;37.612;2024-03-02T12:14:31;56.25;;;37.70;;
42094;SDS011;27753;55.724;37.612;2024-03-02T12:16:58;52.35;;;37.42;;
42094;SDS011;27753;55.724;37.612;2024-03-02T12:19:25;54.65;;;34.83;;
42094;SDS011;27753;55.724;37.612;2024-03-02T12:24:18;55.72;;;36.20;;
42094;SDS011;27753;55.724;37.612;2024-03-02T12:26:44;57.95;;;38.65;;
42094;SDS011;27753;55.724;37.612;2024-03-02T12:29:11;59.53;;;36.85;;
42094;SDS011;27753;55.724;37.612;2024-03-02T12:31:38;60.08;;;35.45;;
42094;SDS011;27753;55.724;37.612;2024-03-02T12:34:04;58.58;;;37.83;;
42094;SDS011;27753;55.724;37.612;2024-03-02T12:36:30;52.42;;;35.25;;
42094;SDS011;27753;55.724;37.612;2024-03-02T12:39:01;58.13;;;37.15;;
42094;SDS011;27753;55.724;37.612;2024-03-02T12:41:27;61.70;;;38.13;;
42094;SDS011;27753;55.724;37.612;2024-03-02T12:43:53;54.38;;;37.60;;
42094;SDS011;27753;55.724;37.612;2024-03-02T12:46:19;71.75;;;37.28;;
42094;SDS011;27753;55.724;37.612;2024-03-02T12:48:45;55.17;;;35.40;;
42094;SDS011;27753;55.724;37.612;2024-03-02T12:51:11;57.67;;;38.58;;
42094;SDS011;27753;55.724;37.612;2024-03-02T12:53:37;58.95;;;37.25;;
42094;SDS011;27753;55.724;37.612;2024-03-02T12:56:06;61.17;;;37.15;;
42094;SDS011;27753;55.724;37.612;2024-03-02T12:58:39;58.92;;;38.40;;
42094;SDS011;27753;55.724;37.612;2024-03-02T13:01:08;58.70;;;37.30;;
42094;SDS011;27753;55.724;37.612;2024-03-02T13:03:38;57.83;;;37.00;;
42094;SDS011;27753;55.724;37.612;2024-03-02T13:06:05;56.55;;;36.13;;
42094;SDS011;27753;55.724;37.612;2024-03-02T13:08:32;68.57;;;39.95;;
42094;SDS011;27753;55.724;37.612;2024-03-02T13:10:58;53.53;;;34.05;;
42094;SDS011;27753;55.724;37.612;2024-03-02T13:13:24;64.78;;;37.58;;
42094;SDS011;27753;55.724;37.612;2024-03-02T13:15:54;51.22;;;31.73;;
42094;SDS011;27753;55.724;37.612;2024-03-02T13:18:21;57.00;;;36.38;;
42094;SDS011;27753;55.724;37.612;2024-03-02T13:20:47;53.13;;;35.53;;
42094;SDS011;27753;55.724;37.612;2024-03-02T13:23:13;55.05;;;38.00;;
42094;SDS011;27753;55.724;37.612;2024-03-02T13:25:39;55.28;;;34.92;;
42094;SDS011;27753;55.724;37.612;2024-03-02T13:28:06;57.92;;;34.42;;
42094;SDS011;27753;55.724;37.612;2024-03-02T13:30:32;55.90;;;34.08;;
42094;SDS011;27753;55.724;37.612;2024-03-02T13:32:58;54.85;;;36.30;;
42094;SDS011;27753;55.724;37.612;2024-03-02T13:35:27;49.60;;;30.35;;
42094;SDS011;27753;55.724;37.612;2024-03-02T13:37:53;51.42;;;33.75;;
42094;SDS011;27753;55.724;37.612;2024-03-02T13:40:19;52.80;;;30.67;;
42094;SDS011;27753;55.724;37.612;2024-03-02T13:42:48;53.70;;;35.53;;
42094;SDS011;27753;55.724;37.612;2024-03-02T13:45:15;60.50;;;36.40;;
42094;SDS011;27753;55.724;37.612;2024-03-02T13:47:43;49.65;;;33.58;;
42094;SDS011;27753;55.724;37.612;2024-03-02T13:50:09;58.85;;;37.15;;
42094;SDS011;27753;55.724;37.612;2024-03-02T13:52:35;54.40;;;32.80;;
42094;SDS011;27753;55.724;37.612;2024-03-02T13:55:01;52.90;;;31.05;;
42094;SDS011;27753;55.724;37.612;2024-03-02T13:57:27;58.70;;;33.78;;
42094;SDS011;27753;55.724;37.612;2024-03-02T13:59:53;54.67;;;35.58;;
42094;SDS011;27753;55.724;37.612;2024-03-02T14:02:19;49.00;;;33.22;;
42094;SDS011;27753;55.724;37.612;2024-03-02T14:04:45;48.00;;;32.85;;
42094;SDS011;27753;55.724;37.612;2024-03-02T14:07:14;53.78;;;33.38;;
42094;SDS011;27753;55.724;37.612;2024-03-02T14:09:40;47.63;;;32.03;;
42094;SDS011;27753;55.724;37.612;2024-03-02T14:12:06;53.30;;;33.13;;
42094;SDS011;27753;55.724;37.612;2024-03-02T14:14:32;57.97;;;33.35;;
42094;SDS011;27753;55.724;37.612;2024-03-02T14:16:58;47.13;;;30.67;;
42094;SDS011;27753;55.724;37.612;2024-03-02T14:19:31;41.88;;;27.17;;
42094;SDS011;27753;55.724;37.612;2024-03-02T14:21:57;47.10;;;31.15;;
42094;SDS011;27753;55.724;37.612;2024-03-02T14:24:27;49.38;;;29.38;;
42094;SDS011;27753;55.724;37.612;2024-03-02T14:26:54;43.70;;;29.27;;
42094;SDS011;27753;55.724;37.612;2024-03-02T14:29:22;47.38;;;29.10;;
42094;SDS011;27753;55.724;37.612;2024-03-02T14:31:48;46.55;;;30.98;;
42094;SDS011;27753;55.724;37.612;2024-03-02T14:34:14;54.38;;;32.67;;
42094;SDS011;27753;55.724;37.612;2024-03-02T14:36:40;47.20;;;30.30;;
42094;SDS011;27753;55.724;37.612;2024-03-02T14:39:08;47.95;;;30.33;;